Affton, MO

8:28 PM CDT on September 22, 2014 (GMT -0500)
South County | Change Station
CLOSE
Current Station
Personal Weather Station
Location: Affton, MO
Elevation: 480 ft
Nearby Weather Stations

Elev 480 ft 38.55 °N, 90.32 °W | Updated 5 seconds ago

Clear
Clear
60.5 °F
Feels Like 60.5 °F
N
0.0
Wind Variable Wind from NNE
Gusts 0.0 mph

Today
High -- | Low -- °F
--% Chance of Precip.
Yesterday
High -- | Low -- °F
Precip. -- in
6:49 AM 6:58 PM
Waning Crescent, 1% visible
Pressure 30.24 in
Visibility 10.0 miles
Clouds Clear
Dew Point 52 °F
Humidity 74%
Rainfall 0.00 in
Snow Depth Not available.
UV 0 out of 12
Pollen 6.00 out of 12
Ozone Good
PM2.5 Good
Flu Activity Not available.
METAR KCPS 230053Z 00000KT 10SM CLR 14/11 A3024 RMK AO2 SLP238 T01440106

More Conditions Fewer Conditions

Pressure 30.24 in
Visibility 10.0 miles
Clouds Clear
Dew Point 52 °F
Humidity 74%
Rainfall 0.00 in
Snow Depth Not available.
UV 0 out of 12
Pollen 6.00 out of 12
Ozone Good
PM2.5 Good
Flu Activity Not available.
METAR KCPS 230053Z 00000KT 10SM CLR 14/11 A3024 RMK AO2 SLP238 T01440106

More Conditions Fewer Conditions

10-Day Weather Forecast

Almanac

Astronomy

Sep. 22, 2014 Rise Set
Actual Time 6:49 AM CDT 6:58 PM CDT
Civil Twilight 6:22 AM CDT 7:24 PM CDT
Nautical Twilight 5:51 AM CDT 7:55 PM CDT
Astronomical Twilight 5:20 AM CDT 8:26 PM CDT
Moon 5:18 AM CDT (9/22) 6:05 PM CDT (9/22)
Length of Visible Light 13h 02m
Length of Day
12h 09m
Tomorrow will be 2m 29s shorter.
Waning Crescent, 1% of the Moon is Illuminated
Today
Waning Crescent
Sep 24
New
Oct 1
First Quarter
Oct 8
Full
Oct 15
Last Quarter

Today's Extremes

State Highs State Lows

Community

WunderPhotos

Upload Photos

1,755,578 photos uploaded!

Nearby

Air Quality

  Air Quality AQ Index Pollutant
Yesterday Good
OZONE
Yesterday Good
PM2.5
Current Good
OZONE
Current Good
PM2.5
Monday Good
PM2.5
Tuesday Good
PM2.5

Snow Depth

Station Depth Elevation
No new snow has been reported.

Earthquake Activity

City Distance Mag. Time & Date
No recent earthquake activity has been reported nearby.
Minimum magnitude displayed is 2.5.

Coastal Water Temperatures

Place Temperature
No Stations Reporting

Nearby Weather Stations